Route Details

Aircraft Information
Group: North America Fleet
Types: B738, B752, B762, B763
Route Data
Distance: 418nm
Duration: 1h 39m
Origin METAR: KCLT 152352Z 05007KT 010V070 10SM -RA FEW016 SCT085 BKN110 BKN200 23/20 A2985 RMK RAB06 SLP102 P0004 60010 T02280200 10311 20222 51005 $
Dest. METAR: KABE 152351Z 16006KT 10SM SCT070 26/11 A2997 RMK AO2 SLP145 T02560106 10300 20256 53012
Freight Data
(for Aug 16, 2022)
Load Factor:
31%
Manifested Cargo: 28,844lbs
Financial History
Total Freight: 183,919lbs
Average Load: 0lbs/flt
Fuel Used: 33,864lbs
Avg. Fuel Used: 0lbs/flt
Fuel Expense: $10,588
Avg. Fuel Expense: $0
Avg. Fuel Cost: $0/lbs
Total Gross Income: $403,011
Pilot Pay: $795
Total Expenses: $56,683
Total Revenue: $333,971
Average Revenue: $0

Capitol Logistics 490




KCLT
Charlotte/Douglas International Airport
Charlotte, North Carolina
KABE
Lehigh Valley International Airport
Allentown, Pennsylvania